Time;durP1;ratioP1;P1;durP2;ratioP2;P2;SDS_P1;SDS_P2;PMS_P1;PMS_P2;Temp;Humidity;BMP_temperature;BMP_pressure;BME280_temperature;BME280_humidity;BME280_pressure;Samples;Min_cycle;Max_cycle;Signal;HPM_P1;HPM_P2
2023/12/04 00:00:37;;;;;;;82.13;34.15;;;;;;;0.74;100.00;101364.50;5068936;27;20703;-74
2023/12/04 00:03:02;;;;;;;79.10;33.00;;;;;;;0.74;100.00;101354.00;5054464;28;20071;-74
2023/12/04 00:05:28;;;;;;;75.82;32.03;;;;;;;0.62;100.00;101344.56;5075345;28;20032;-73
2023/12/04 00:07:53;;;;;;;75.68;32.70;;;;;;;0.45;100.00;101334.31;5069724;28;20052;-73
2023/12/04 00:10:20;;;;;;;71.65;30.33;;;;;;;0.63;100.00;101337.56;5073201;28;20132;-73
2023/12/04 00:12:45;;;;;;;70.80;30.50;;;;;;;0.64;100.00;101337.53;5070162;28;20072;-74
2023/12/04 00:15:11;;;;;;;72.00;31.33;;;;;;;0.72;100.00;101333.06;5074389;28;20099;-73
2023/12/04 00:17:39;;;;;;;62.95;28.50;;;;;;;0.45;100.00;101329.09;5072835;28;20033;-73
2023/12/04 00:20:11;;;;;;;65.65;28.58;;;;;;;0.57;100.00;101316.66;5068881;28;20040;-73
2023/12/04 00:22:37;;;;;;;65.13;29.83;;;;;;;0.42;100.00;101323.88;5074470;28;20039;-73
2023/12/04 00:25:04;;;;;;;63.92;30.52;;;;;;;0.48;100.00;101322.91;5074877;28;20028;-74
2023/12/04 00:27:30;;;;;;;65.40;30.10;;;;;;;0.29;100.00;101319.66;5077896;28;20033;-74
2023/12/04 00:29:56;;;;;;;66.22;29.80;;;;;;;0.65;100.00;101322.66;5053009;28;20216;-73
2023/12/04 00:32:22;;;;;;;74.32;30.58;;;;;;;0.69;100.00;101309.47;5069795;28;20071;-74
2023/12/04 00:34:47;;;;;;;65.40;29.25;;;;;;;0.64;100.00;101315.69;5070234;28;20033;-74
2023/12/04 00:37:13;;;;;;;71.95;29.67;;;;;;;0.78;100.00;101313.72;5070803;28;20044;-73
2023/12/04 00:39:38;;;;;;;74.45;31.80;;;;;;;0.67;100.00;101313.03;5071947;28;20051;-73
2023/12/04 00:42:04;;;;;;;63.72;29.52;;;;;;;0.73;100.00;101307.66;5056341;28;20078;-72
2023/12/04 00:44:29;;;;;;;63.38;29.70;;;;;;;0.63;100.00;101293.81;5071353;28;20033;-73
2023/12/04 00:46:55;;;;;;;57.20;26.83;;;;;;;0.70;100.00;101297.22;5071429;28;20044;-72
2023/12/04 00:49:20;;;;;;;64.95;30.60;;;;;;;0.66;100.00;101285.91;5053539;28;20036;-73
2023/12/04 00:51:46;;;;;;;69.03;30.05;;;;;;;0.72;100.00;101290.19;5070506;28;20032;-73
2023/12/04 00:54:11;;;;;;;65.38;29.27;;;;;;;0.52;100.00;101278.25;5070997;28;20044;-73
2023/12/04 00:56:40;;;;;;;67.18;29.52;;;;;;;0.47;100.00;101281.81;5051419;28;20529;-72
2023/12/04 00:59:09;;;;;;;59.55;27.58;;;;;;;0.34;100.00;101280.25;5070323;28;20039;-72
2023/12/04 01:01:38;;;;;;;61.83;27.58;;;;;;;0.35;100.00;101292.47;5078284;27;20043;-72
2023/12/04 01:04:04;;;;;;;57.30;26.40;;;;;;;0.38;100.00;101290.69;5071561;28;20032;-72
2023/12/04 01:06:29;;;;;;;60.67;27.75;;;;;;;0.55;100.00;101282.56;5078546;28;20056;-73
2023/12/04 01:08:56;;;;;;;63.88;29.00;;;;;;;0.52;100.00;101285.25;5062616;28;20028;-73
2023/12/04 01:11:22;;;;;;;61.15;27.80;;;;;;;0.20;100.00;101283.06;5073918;28;20024;-73
2023/12/04 01:13:50;;;;;;;57.08;26.83;;;;;;;0.24;100.00;101277.75;5074188;28;20040;-73
2023/12/04 01:16:17;;;;;;;55.50;27.08;;;;;;;0.43;100.00;101274.88;5073446;28;20036;-73
2023/12/04 01:18:43;;;;;;;60.42;27.35;;;;;;;0.37;100.00;101275.84;5073022;28;20036;-73
2023/12/04 01:21:09;;;;;;;65.35;29.60;;;;;;;0.47;100.00;101269.56;5054041;28;20890;-73
2023/12/04 01:23:35;;;;;;;60.20;27.45;;;;;;;0.39;100.00;101265.31;5074750;28;20033;-73
2023/12/04 01:26:01;;;;;;;56.53;26.25;;;;;;;0.23;100.00;101270.78;5077884;28;20036;-73
2023/12/04 01:28:27;;;;;;;56.95;26.48;;;;;;;0.15;100.00;101261.28;5079181;28;20632;-73
2023/12/04 01:30:52;;;;;;;59.72;27.35;;;;;;;0.22;100.00;101257.72;5037534;28;20043;-72
2023/12/04 01:33:18;;;;;;;60.92;26.05;;;;;;;0.47;100.00;101263.47;5075405;28;20036;-73
2023/12/04 01:35:47;;;;;;;61.17;27.23;;;;;;;0.59;100.00;101267.66;5072090;27;20040;-72
2023/12/04 01:38:12;;;;;;;54.03;26.50;;;;;;;0.66;100.00;101259.66;5072381;28;20048;-72
2023/12/04 01:40:38;;;;;;;58.60;25.92;;;;;;;0.62;100.00;101251.88;5076354;28;20131;-72
2023/12/04 01:43:03;;;;;;;54.35;27.33;;;;;;;0.67;100.00;101250.03;5093126;27;20044;-73
2023/12/04 01:45:29;;;;;;;53.13;25.75;;;;;;;0.76;100.00;101250.75;5073452;28;20048;-75
2023/12/04 01:47:55;;;;;;;59.13;26.98;;;;;;;0.73;100.00;101248.16;5079732;28;20041;-74
2023/12/04 01:50:20;;;;;;;55.63;25.35;;;;;;;0.66;100.00;101249.19;5081356;28;20036;-72
2023/12/04 01:52:47;;;;;;;55.30;25.27;;;;;;;0.35;100.00;101240.03;5075528;28;20048;-72
2023/12/04 01:55:14;;;;;;;54.47;25.45;;;;;;;0.36;100.00;101242.66;5075167;28;20033;-74
2023/12/04 01:57:41;;;;;;;51.85;25.20;;;;;;;0.44;100.00;101234.66;5072933;28;20120;-75
2023/12/04 02:00:11;;;;;;;53.30;24.25;;;;;;;0.42;100.00;101229.44;5077650;28;20039;-72
2023/12/04 02:02:38;;;;;;;53.13;23.08;;;;;;;0.70;100.00;101234.22;5080154;27;20048;-72
2023/12/04 02:05:07;;;;;;;50.08;24.10;;;;;;;0.41;100.00;101221.59;5069790;28;21307;-72
2023/12/04 02:07:33;;;;;;;53.08;24.30;;;;;;;0.72;100.00;101216.72;5077758;28;20079;-74
2023/12/04 02:09:59;;;;;;;47.85;23.80;;;;;;;0.71;100.00;101207.97;5077770;28;20074;-72
2023/12/04 02:12:24;;;;;;;46.42;23.73;;;;;;;0.52;100.00;101202.16;5075853;28;20052;-72
2023/12/04 02:14:52;;;;;;;53.85;24.58;;;;;;;0.48;100.00;101204.84;5077148;28;20058;-74
2023/12/04 02:17:18;;;;;;;47.97;22.27;;;;;;;0.44;100.00;101198.78;5067464;28;20037;-73
2023/12/04 02:19:44;;;;;;;50.80;23.35;;;;;;;0.48;100.00;101189.97;5072555;28;20055;-74
2023/12/04 02:22:10;;;;;;;48.35;24.58;;;;;;;0.68;100.00;101200.16;5072719;28;20131;-74
2023/12/04 02:24:36;;;;;;;52.45;24.60;;;;;;;0.73;100.00;101194.81;5072317;28;20036;-74
2023/12/04 02:27:15;;;;;;;49.80;22.83;;;;;;;0.61;100.00;101197.66;5074849;28;20139;-73
2023/12/04 02:29:49;;;;;;;48.45;22.20;;;;;;;0.82;100.00;101191.19;5080570;28;20502;-74
2023/12/04 02:32:17;;;;;;;56.13;23.95;;;;;;;0.88;100.00;101194.56;5075942;28;20032;-74
2023/12/04 02:34:46;;;;;;;53.58;22.95;;;;;;;0.79;100.00;101184.22;5073485;28;20367;-73
2023/12/04 02:37:12;;;;;;;50.65;24.40;;;;;;;0.67;100.00;101173.94;5071520;28;20054;-74
2023/12/04 02:39:38;;;;;;;48.13;23.83;;;;;;;0.71;100.00;101173.88;5072321;28;20036;-73
2023/12/04 02:42:04;;;;;;;48.28;23.70;;;;;;;0.76;100.00;101158.91;5055401;28;20119;-73
2023/12/04 02:44:29;;;;;;;49.38;23.33;;;;;;;0.73;100.00;101163.31;5080813;28;20028;-74
2023/12/04 02:46:55;;;;;;;44.85;22.20;;;;;;;0.63;100.00;101156.50;5055935;28;20036;-74
2023/12/04 02:49:21;;;;;;;44.00;21.48;;;;;;;0.58;100.00;101158.34;5074396;28;20934;-73
2023/12/04 02:51:46;;;;;;;40.83;20.92;;;;;;;0.73;100.00;101152.81;5078144;28;20036;-73
2023/12/04 02:54:12;;;;;;;42.58;21.52;;;;;;;0.75;100.00;101148.41;5071522;28;20036;-74
2023/12/04 02:56:37;;;;;;;46.22;22.90;;;;;;;0.37;100.00;101143.84;5074973;28;20031;-74
2023/12/04 02:59:03;;;;;;;44.38;23.33;;;;;;;0.53;100.00;101134.81;5081568;28;20772;-73
2023/12/04 03:01:28;;;;;;;42.60;20.77;;;;;;;0.65;100.00;101131.09;5074279;27;20205;-73
2023/12/04 03:03:54;;;;;;;41.65;21.55;;;;;;;0.72;100.00;101130.09;5072275;28;20036;-73
2023/12/04 03:06:19;;;;;;;51.03;22.45;;;;;;;0.72;100.00;101123.09;5074301;28;20030;-73
2023/12/04 03:08:45;;;;;;;42.50;21.35;;;;;;;0.66;100.00;101127.59;5073341;28;20487;-72
2023/12/04 03:11:10;;;;;;;44.25;21.67;;;;;;;0.63;100.00;101120.63;5071859;28;20033;-74
2023/12/04 03:13:36;;;;;;;40.63;20.60;;;;;;;0.65;100.00;101111.00;5058988;28;20047;-73
2023/12/04 03:16:02;;;;;;;44.55;20.05;;;;;;;0.53;100.00;101119.06;5070929;28;20041;-73
2023/12/04 03:18:28;;;;;;;39.67;20.00;;;;;;;0.53;100.00;101116.44;5071344;28;20078;-73
2023/12/04 03:20:54;;;;;;;44.28;21.13;;;;;;;0.63;100.00;101112.75;5052992;28;20618;-73
2023/12/04 03:23:20;;;;;;;40.42;20.60;;;;;;;0.74;100.00;101116.06;5071070;28;20028;-73
2023/12/04 03:25:48;;;;;;;40.35;20.23;;;;;;;0.73;100.00;101106.44;5054046;28;20045;-73
2023/12/04 03:28:15;;;;;;;39.40;19.13;;;;;;;0.58;100.00;101105.88;5070912;28;20036;-73
2023/12/04 03:30:45;;;;;;;38.90;20.13;;;;;;;0.48;100.00;101106.03;5071084;28;20048;-73
2023/12/04 03:33:10;;;;;;;38.63;19.55;;;;;;;0.59;100.00;101092.72;5073368;28;20158;-72
2023/12/04 03:35:36;;;;;;;40.08;19.35;;;;;;;0.52;100.00;101097.22;5058445;28;20036;-73
2023/12/04 03:38:01;;;;;;;38.25;19.63;;;;;;;0.61;100.00;101096.19;5075086;27;20113;-73
2023/12/04 03:40:27;;;;;;;48.80;19.88;;;;;;;0.66;100.00;101096.97;5075161;27;20040;-73
2023/12/04 03:42:52;;;;;;;40.70;20.60;;;;;;;0.60;100.00;101097.06;5077910;28;20043;-73
2023/12/04 03:45:18;;;;;;;37.00;18.83;;;;;;;0.67;100.00;101090.81;5077740;27;20028;-73
2023/12/04 03:47:43;;;;;;;37.33;19.33;;;;;;;0.75;100.00;101088.94;5057303;28;20113;-73
2023/12/04 03:50:09;;;;;;;38.53;19.75;;;;;;;0.70;100.00;101087.25;5071942;28;20079;-73
2023/12/04 03:52:34;;;;;;;37.55;18.45;;;;;;;0.70;100.00;101085.53;5072438;28;20383;-72
2023/12/04 03:55:00;;;;;;;37.83;18.88;;;;;;;0.67;100.00;101072.47;5072764;27;20124;-73
2023/12/04 03:57:25;;;;;;;39.40;20.00;;;;;;;0.66;100.00;101077.75;5059811;28;20560;-73
2023/12/04 03:59:51;;;;;;;32.42;17.63;;;;;;;0.67;100.00;101079.47;5078637;28;20043;-73
2023/12/04 04:02:16;;;;;;;36.03;18.80;;;;;;;0.67;100.00;101067.22;5073686;28;20572;-72
2023/12/04 04:04:42;;;;;;;31.55;18.10;;;;;;;0.75;100.00;101062.69;5072366;28;20036;-73
2023/12/04 04:07:08;;;;;;;35.25;19.27;;;;;;;0.83;100.00;101059.03;5078864;28;20439;-73
2023/12/04 04:09:34;;;;;;;34.13;18.88;;;;;;;0.68;100.00;101061.06;5083685;28;20343;-73
2023/12/04 04:11:59;;;;;;;34.70;18.40;;;;;;;0.77;100.00;101058.25;5081005;28;20403;-73
2023/12/04 04:14:25;;;;;;;33.97;17.05;;;;;;;0.72;100.00;101054.88;5073031;28;20042;-73
2023/12/04 04:16:50;;;;;;;35.47;17.52;;;;;;;0.65;100.00;101055.00;5073419;28;20557;-72
2023/12/04 04:19:16;;;;;;;32.40;18.10;;;;;;;0.59;100.00;101061.22;5076671;28;20037;-73
2023/12/04 04:21:41;;;;;;;33.83;17.52;;;;;;;0.56;100.00;101056.06;5072234;28;20038;-73
2023/12/04 04:24:07;;;;;;;30.55;16.27;;;;;;;0.52;100.00;101051.75;5051934;28;20055;-73
2023/12/04 04:26:32;;;;;;;31.90;17.35;;;;;;;0.40;100.00;101052.88;5076181;28;20095;-72
2023/12/04 04:28:58;;;;;;;35.95;17.25;;;;;;;0.60;100.00;101051.59;5074886;28;20036;-73
2023/12/04 04:31:23;;;;;;;32.08;16.65;;;;;;;0.56;100.00;101044.72;5076329;28;20039;-73
2023/12/04 04:33:49;;;;;;;34.80;17.88;;;;;;;0.41;100.00;101036.22;5075179;28;21106;-73
2023/12/04 04:36:14;;;;;;;32.88;17.02;;;;;;;0.40;100.00;101030.97;5073226;28;20820;-73
2023/12/04 04:38:43;;;;;;;32.55;16.70;;;;;;;0.44;100.00;101022.16;5074540;28;20043;-73
2023/12/04 04:41:16;;;;;;;33.00;16.60;;;;;;;0.42;100.00;101016.09;5074823;28;20123;-73
2023/12/04 04:43:42;;;;;;;30.70;15.90;;;;;;;0.43;100.00;101023.06;5051091;28;20040;-73
2023/12/04 04:46:07;;;;;;;33.28;16.52;;;;;;;0.44;100.00;101015.16;5090106;27;21059;-73
2023/12/04 04:48:33;;;;;;;29.30;16.75;;;;;;;0.38;100.00;101014.41;5071393;28;20041;-74
2023/12/04 04:50:58;;;;;;;29.42;16.60;;;;;;;0.38;100.00;101017.03;5070749;27;20050;-74
2023/12/04 04:53:24;;;;;;;28.63;16.30;;;;;;;0.45;100.00;101005.53;5073212;28;20043;-74
2023/12/04 04:55:49;;;;;;;30.70;16.92;;;;;;;0.52;100.00;101005.41;5072152;28;20028;-75
2023/12/04 04:58:16;;;;;;;28.63;15.55;;;;;;;0.40;100.00;100997.78;5069583;28;20040;-75
2023/12/04 05:00:41;;;;;;;26.45;14.55;;;;;;;0.44;100.00;100995.94;5072478;27;20028;-76
2023/12/04 05:03:07;;;;;;;28.05;15.80;;;;;;;0.41;100.00;100989.00;5070238;28;20036;-74
2023/12/04 05:05:33;;;;;;;27.85;15.52;;;;;;;0.41;100.00;100988.16;5073526;28;20140;-74
2023/12/04 05:07:58;;;;;;;27.08;15.15;;;;;;;0.40;100.00;100989.00;5070809;28;20035;-74
2023/12/04 05:10:24;;;;;;;24.95;14.52;;;;;;;0.38;100.00;100986.44;5072561;28;20064;-74
2023/12/04 05:12:49;;;;;;;32.38;16.33;;;;;;;0.48;100.00;100980.13;5074002;28;20048;-74
2023/12/04 05:15:15;;;;;;;29.08;15.60;;;;;;;0.43;100.00;100983.72;5069649;28;20514;-75
2023/12/04 05:17:41;;;;;;;30.35;15.75;;;;;;;0.45;100.00;100982.81;5071104;28;26190;-75
2023/12/04 05:20:07;;;;;;;26.58;15.25;;;;;;;0.38;100.00;100982.94;5065358;28;20036;-73
2023/12/04 05:22:34;;;;;;;28.58;15.05;;;;;;;0.42;100.00;100979.38;5070695;28;20032;-74
2023/12/04 05:24:59;;;;;;;29.50;15.38;;;;;;;0.47;100.00;100985.41;5068288;28;20031;-74
2023/12/04 05:27:25;;;;;;;27.60;15.32;;;;;;;0.47;100.00;100988.03;5078932;28;20830;-74
2023/12/04 05:29:51;;;;;;;26.65;14.40;;;;;;;0.45;100.00;100981.94;5072277;28;21031;-75
2023/12/04 05:32:16;;;;;;;26.98;14.88;;;;;;;0.56;100.00;100979.97;5068790;28;20398;-74
2023/12/04 05:34:42;;;;;;;28.30;14.82;;;;;;;0.56;100.00;100982.59;5070061;28;20036;-74
2023/12/04 05:37:08;;;;;;;25.77;14.43;;;;;;;0.64;100.00;100979.81;5067520;27;25136;-74
2023/12/04 05:39:33;;;;;;;29.23;15.10;;;;;;;0.57;100.00;100979.06;5068878;27;20037;-73
2023/12/04 05:41:59;;;;;;;29.08;14.68;;;;;;;0.69;100.00;100980.56;5062170;27;20032;-74
2023/12/04 05:44:24;;;;;;;25.15;13.50;;;;;;;0.61;100.00;100970.25;5076225;28;20036;-74
2023/12/04 05:46:50;;;;;;;27.30;14.45;;;;;;;0.62;100.00;100966.72;5068283;28;20140;-73
2023/12/04 05:49:15;;;;;;;27.77;13.80;;;;;;;0.57;100.00;100970.34;5069386;27;20876;-74
2023/12/04 05:51:41;;;;;;;28.30;14.48;;;;;;;0.64;100.00;100967.53;5069504;28;20834;-74
2023/12/04 05:54:06;;;;;;;23.48;12.68;;;;;;;0.54;100.00;100958.13;5050453;28;20468;-74
2023/12/04 05:56:32;;;;;;;29.05;13.70;;;;;;;0.58;100.00;100956.31;5050354;28;20039;-73
2023/12/04 05:58:57;;;;;;;23.33;13.27;;;;;;;0.55;100.00;100961.63;5071798;28;20059;-74
2023/12/04 06:01:23;;;;;;;28.73;13.63;;;;;;;0.56;100.00;100952.88;5077831;27;20755;-74
2023/12/04 06:03:48;;;;;;;22.67;12.73;;;;;;;0.56;100.00;100945.88;5061307;28;20805;-74
2023/12/04 06:06:14;;;;;;;25.25;14.05;;;;;;;0.69;100.00;100947.31;5079373;28;20790;-74
2023/12/04 06:08:39;;;;;;;22.08;13.27;;;;;;;0.60;100.00;100944.03;5077449;28;20032;-74
2023/12/04 06:11:05;;;;;;;23.92;13.27;;;;;;;0.59;100.00;100940.53;5073261;28;20866;-74
2023/12/04 06:13:30;;;;;;;25.52;12.85;;;;;;;0.66;100.00;100936.06;5076099;28;20052;-74
2023/12/04 06:15:56;;;;;;;24.75;12.90;;;;;;;0.64;100.00;100936.06;5070622;28;20036;-74
2023/12/04 06:18:21;;;;;;;21.25;12.63;;;;;;;0.74;100.00;100921.84;5078106;27;20039;-74
2023/12/04 06:20:47;;;;;;;21.83;13.38;;;;;;;0.60;100.00;100923.91;5074075;28;20033;-74
2023/12/04 06:23:13;;;;;;;24.20;13.57;;;;;;;0.68;100.00;100918.50;5069920;28;20843;-74
2023/12/04 06:25:39;;;;;;;20.33;12.10;;;;;;;0.70;100.00;100914.06;5075477;28;20051;-74
2023/12/04 06:28:05;;;;;;;19.30;10.95;;;;;;;0.80;100.00;100914.72;5074820;28;20032;-73
2023/12/04 06:30:30;;;;;;;22.33;12.90;;;;;;;0.69;100.00;100923.72;5071918;28;20033;-74
2023/12/04 06:32:56;;;;;;;19.15;11.88;;;;;;;0.78;100.00;100906.91;5071561;28;20775;-74
2023/12/04 06:35:22;;;;;;;20.75;12.15;;;;;;;0.74;100.00;100911.34;5071948;28;20114;-74
2023/12/04 06:38:05;;;;;;;21.73;12.93;;;;;;;0.73;100.00;100908.78;5071067;28;20063;-73
2023/12/04 06:40:32;;;;;;;24.00;12.38;;;;;;;0.73;100.00;100907.00;5074462;28;20060;-74
2023/12/04 06:42:57;;;;;;;21.88;11.98;;;;;;;0.85;100.00;100916.34;5074991;28;21006;-74
2023/12/04 06:45:23;;;;;;;24.35;12.15;;;;;;;0.88;100.00;100911.06;5077549;28;20037;-74
2023/12/04 06:47:50;;;;;;;20.48;10.82;;;;;;;0.74;100.00;100900.84;5040613;28;20123;-74
2023/12/04 06:50:16;;;;;;;20.40;11.38;;;;;;;0.80;100.00;100891.97;5063642;28;20188;-74
2023/12/04 06:52:42;;;;;;;18.23;11.05;;;;;;;0.77;100.00;100885.06;5071761;28;20110;-74
2023/12/04 06:55:08;;;;;;;21.52;11.40;;;;;;;0.78;100.00;100878.91;5071667;28;20043;-74
2023/12/04 06:57:33;;;;;;;17.90;10.68;;;;;;;0.77;100.00;100881.56;5072668;28;20883;-74
2023/12/04 06:59:59;;;;;;;16.25;10.43;;;;;;;0.87;100.00;100877.84;5071562;28;20036;-74
2023/12/04 07:02:24;;;;;;;18.90;10.65;;;;;;;0.73;100.00;100866.78;5086363;27;20032;-74
2023/12/04 07:04:50;;;;;;;17.00;10.25;;;;;;;0.76;100.00;100870.22;5074434;28;20301;-74
2023/12/04 07:07:15;;;;;;;17.42;10.75;;;;;;;0.85;100.00;100865.63;5072836;28;20144;-74
2023/12/04 07:09:41;;;;;;;20.30;11.43;;;;;;;0.92;100.00;100867.22;5062486;28;20101;-74
2023/12/04 07:12:06;;;;;;;19.80;10.90;;;;;;;0.81;100.00;100864.00;5071028;28;20048;-74
2023/12/04 07:14:32;;;;;;;20.92;11.52;;;;;;;0.93;100.00;100858.44;5070302;28;20040;-73
2023/12/04 07:16:57;;;;;;;19.20;11.45;;;;;;;0.98;100.00;100853.94;5071320;28;20115;-74
2023/12/04 07:19:23;;;;;;;19.75;11.38;;;;;;;0.92;100.00;100849.72;5069445;28;20028;-74
2023/12/04 07:21:49;;;;;;;21.52;11.10;;;;;;;0.83;100.00;100855.16;5070987;28;20043;-74
2023/12/04 07:24:16;;;;;;;21.02;11.82;;;;;;;0.98;100.00;100846.06;5074471;28;20036;-74
2023/12/04 07:26:41;;;;;;;19.42;11.02;;;;;;;0.75;100.00;100847.50;5070453;28;20024;-74
2023/12/04 07:29:07;;;;;;;20.17;11.48;;;;;;;0.83;100.00;100856.94;5072012;28;20032;-74
2023/12/04 07:31:32;;;;;;;16.55;10.38;;;;;;;0.87;100.00;100840.22;5071636;28;20068;-74
2023/12/04 07:34:00;;;;;;;19.08;11.45;;;;;;;0.91;100.00;100839.25;5069497;28;20257;-74
2023/12/04 07:36:25;;;;;;;23.25;11.55;;;;;;;0.88;100.00;100837.56;5072555;28;20037;-75
2023/12/04 07:38:53;;;;;;;21.52;10.60;;;;;;;0.85;100.00;100845.50;5033738;28;20029;-74
2023/12/04 07:41:19;;;;;;;20.95;11.90;;;;;;;0.97;100.00;100828.59;5070054;28;20161;-74
2023/12/04 07:43:45;;;;;;;21.77;11.90;;;;;;;0.92;100.00;100831.34;5076307;28;20501;-75
2023/12/04 07:46:11;;;;;;;23.13;11.40;;;;;;;0.80;100.00;100825.50;5054839;28;20044;-74
2023/12/04 07:48:37;;;;;;;22.20;11.38;;;;;;;0.87;100.00;100833.22;5072631;28;20045;-74
2023/12/04 07:51:03;;;;;;;19.92;11.00;;;;;;;0.84;100.00;100821.91;5071813;28;20056;-74
2023/12/04 07:53:29;;;;;;;26.45;12.18;;;;;;;0.87;100.00;100820.09;5073663;28;20040;-72
2023/12/04 07:55:54;;;;;;;20.83;12.02;;;;;;;0.86;100.00;100812.25;5076373;28;20049;-73
2023/12/04 07:58:20;;;;;;;20.90;12.48;;;;;;;0.87;100.00;100813.97;5077099;28;20040;-76
2023/12/04 08:00:45;;;;;;;24.35;11.77;;;;;;;0.87;100.00;100806.97;5064000;28;20047;-73
2023/12/04 08:03:11;;;;;;;24.48;11.75;;;;;;;0.83;100.00;100800.06;5056380;28;20040;-73
2023/12/04 08:05:37;;;;;;;21.63;12.25;;;;;;;0.85;100.00;100802.63;5064506;28;20032;-73
2023/12/04 08:08:03;;;;;;;24.70;12.80;;;;;;;0.94;100.00;100805.03;5063383;27;20252;-73
2023/12/04 08:10:29;;;;;;;22.85;12.40;;;;;;;1.00;100.00;100797.91;5054797;28;20072;-73
2023/12/04 08:12:54;;;;;;;26.88;12.65;;;;;;;1.10;100.00;100805.53;5060525;28;20074;-75
2023/12/04 08:15:20;;;;;;;20.23;12.02;;;;;;;1.08;100.00;100804.72;5052745;28;20730;-74
2023/12/04 08:17:45;;;;;;;20.27;11.50;;;;;;;1.00;100.00;100803.16;5071214;28;20474;-72
2023/12/04 08:20:14;;;;;;;18.95;11.52;;;;;;;1.07;100.00;100803.84;5068504;28;20036;-72
2023/12/04 08:22:41;;;;;;;20.15;11.60;;;;;;;1.32;100.00;100813.75;5070643;28;20040;-75
2023/12/04 08:25:07;;;;;;;25.73;12.90;;;;;;;1.49;100.00;100817.63;5050561;28;20044;-74
2023/12/04 08:27:33;;;;;;;21.60;12.27;;;;;;;1.42;100.00;100807.34;5086722;27;20033;-75
2023/12/04 08:29:58;;;;;;;21.05;11.98;;;;;;;1.29;100.00;100812.91;5057067;28;20464;-74
2023/12/04 08:32:26;;;;;;;20.90;12.63;;;;;;;1.25;100.00;100811.25;5069025;28;20785;-74
2023/12/04 08:34:51;;;;;;;27.10;12.40;;;;;;;1.13;100.00;100800.19;5067877;28;20726;-74
2023/12/04 08:37:18;;;;;;;28.42;13.32;;;;;;;1.29;100.00;100809.41;5070405;27;20041;-74
2023/12/04 08:39:44;;;;;;;22.10;12.63;;;;;;;1.47;100.00;100805.44;5069261;28;20024;-74
2023/12/04 08:42:09;;;;;;;24.13;14.18;;;;;;;1.33;100.00;100797.06;5067691;28;20033;-74
2023/12/04 08:44:35;;;;;;;25.60;13.95;;;;;;;1.34;100.00;100799.66;5068505;28;20036;-74
2023/12/04 08:47:01;;;;;;;23.08;13.68;;;;;;;1.27;100.00;100788.44;5069923;28;20041;-73
2023/12/04 08:49:26;;;;;;;23.85;13.65;;;;;;;1.23;100.00;100780.69;5057273;28;20029;-74
2023/12/04 08:51:52;;;;;;;22.55;12.52;;;;;;;1.21;100.00;100780.72;5070381;28;20626;-74
2023/12/04 08:54:18;;;;;;;24.85;13.55;;;;;;;1.32;100.00;100788.34;5067828;27;20044;-74
2023/12/04 08:56:44;;;;;;;21.40;12.43;;;;;;;1.14;100.00;100773.03;5051283;28;20033;-73
2023/12/04 08:59:10;;;;;;;25.35;12.48;;;;;;;1.24;100.00;100769.28;5068180;27;20025;-73
2023/12/04 09:01:36;;;;;;;23.67;13.93;;;;;;;1.41;100.00;100768.84;5090865;27;20044;-74
2023/12/04 09:04:01;;;;;;;22.13;13.63;;;;;;;1.26;100.00;100770.13;5068269;27;21209;-73
2023/12/04 09:06:27;;;;;;;22.98;13.07;;;;;;;1.55;100.00;100772.78;5071219;27;20033;-73
2023/12/04 09:08:53;;;;;;;21.58;13.57;;;;;;;1.51;100.00;100770.31;5052799;28;20032;-73
2023/12/04 09:11:19;;;;;;;23.00;13.77;;;;;;;1.54;100.00;100760.56;5067993;28;20062;-74
2023/12/04 09:13:45;;;;;;;23.92;13.68;;;;;;;1.61;100.00;100756.03;5068578;28;20891;-74
2023/12/04 09:16:10;;;;;;;20.85;13.00;;;;;;;1.60;100.00;100759.53;5063778;28;20035;-73
2023/12/04 09:18:36;;;;;;;24.13;14.07;;;;;;;1.77;100.00;100759.94;5048526;28;20036;-73
2023/12/04 09:21:02;;;;;;;25.08;14.77;;;;;;;1.72;100.00;100758.34;5065987;28;20561;-73
2023/12/04 09:23:27;;;;;;;22.77;13.52;;;;;;;1.50;100.00;100758.06;5048318;28;20628;-73
2023/12/04 09:25:53;;;;;;;25.73;13.55;;;;;;;1.71;100.00;100759.25;5069786;28;20040;-74
2023/12/04 09:28:18;;;;;;;25.48;14.63;;;;;;;1.77;100.00;100762.56;5050680;28;20098;-74
2023/12/04 09:30:44;;;;;;;23.55;13.40;;;;;;;1.63;100.00;100756.81;5091334;27;20036;-74
2023/12/04 09:33:10;;;;;;;26.83;15.07;;;;;;;1.70;100.00;100752.25;5058785;28;20044;-74
2023/12/04 09:35:35;;;;;;;21.95;13.63;;;;;;;1.66;100.00;100754.13;5059664;28;20133;-74
2023/12/04 09:38:01;;;;;;;23.38;13.68;;;;;;;1.74;100.00;100746.88;5075762;28;20783;-74
2023/12/04 09:40:27;;;;;;;28.88;14.50;;;;;;;1.71;100.00;100744.34;5050565;28;20037;-74
2023/12/04 09:42:53;;;;;;;26.80;14.05;;;;;;;1.81;100.00;100752.81;5060387;28;20032;-73
2023/12/04 09:45:20;;;;;;;24.40;13.98;;;;;;;1.81;100.00;100750.19;5075132;28;20165;-73
2023/12/04 09:47:48;;;;;;;26.23;14.30;;;;;;;1.90;100.00;100749.91;5070658;28;20033;-74
2023/12/04 09:50:15;;;;;;;30.27;15.73;;;;;;;1.89;100.00;100753.44;5054141;28;20072;-74
2023/12/04 09:52:42;;;;;;;27.45;15.82;;;;;;;1.71;100.00;100748.75;5069814;28;20083;-74
2023/12/04 09:55:08;;;;;;;24.70;14.73;;;;;;;1.82;100.00;100744.03;5051368;28;20043;-74
2023/12/04 09:57:34;;;;;;;27.08;14.10;;;;;;;1.89;100.00;100749.97;5073571;27;20028;-74
2023/12/04 10:00:02;;;;;;;26.77;14.60;;;;;;;1.96;100.00;100741.88;5052809;28;20040;-74
2023/12/04 10:02:37;;;;;;;23.23;14.00;;;;;;;2.07;100.00;100744.16;5064822;28;20060;-74
2023/12/04 10:05:05;;;;;;;25.67;14.15;;;;;;;2.02;100.00;100743.44;5077550;28;20426;-74
2023/12/04 10:07:31;;;;;;;24.90;14.38;;;;;;;2.03;100.00;100737.28;5078140;28;20032;-74
2023/12/04 10:09:57;;;;;;;27.23;15.68;;;;;;;2.06;100.00;100737.19;5056325;28;20121;-74
2023/12/04 10:12:22;;;;;;;26.02;14.25;;;;;;;2.23;100.00;100723.53;5073805;28;20108;-74
2023/12/04 10:15:04;;;;;;;22.52;14.65;;;;;;;2.19;100.00;100722.75;5071535;28;20079;-73
2023/12/04 10:17:35;;;;;;;22.17;12.95;;;;;;;2.19;100.00;100717.47;5063803;28;20066;-74
2023/12/04 10:20:10;;;;;;;25.83;13.82;;;;;;;2.14;100.00;100716.75;5057283;28;20516;-73
2023/12/04 10:22:36;;;;;;;26.25;13.55;;;;;;;2.21;100.00;100720.06;5071418;28;20041;-75
2023/12/04 10:25:15;;;;;;;21.88;13.27;;;;;;;2.31;100.00;100709.22;5076556;27;20032;-74
2023/12/04 10:27:41;;;;;;;24.60;13.07;;;;;;;2.33;100.00;100703.91;5071418;28;20056;-75
2023/12/04 10:30:07;;;;;;;26.48;13.55;;;;;;;2.30;100.00;100702.22;5060322;28;20101;-75
2023/12/04 10:32:36;;;;;;;21.13;12.32;;;;;;;2.45;100.00;100694.75;5074141;28;20509;-75
2023/12/04 10:35:02;;;;;;;23.80;12.23;;;;;;;2.32;100.00;100694.31;5069626;28;20035;-74
2023/12/04 10:37:29;;;;;;;17.75;11.90;;;;;;;2.28;100.00;100696.16;5046706;28;20836;-74
2023/12/04 10:39:57;;;;;;;21.02;11.55;;;;;;;2.23;100.00;100694.59;5072715;28;21047;-74
2023/12/04 10:42:28;;;;;;;20.67;11.90;;;;;;;2.54;100.00;100683.94;5038327;28;20086;-74
2023/12/04 10:44:58;;;;;;;18.98;11.75;;;;;;;2.68;100.00;100683.47;5062166;28;20145;-75
2023/12/04 10:47:24;;;;;;;20.85;11.52;;;;;;;2.49;100.00;100685.84;5071658;28;20187;-75
2023/12/04 10:49:50;;;;;;;18.80;11.32;;;;;;;2.35;100.00;100681.03;5071431;28;20040;-75
2023/12/04 10:52:19;;;;;;;18.55;11.55;;;;;;;2.46;100.00;100675.41;5070826;28;20495;-75
2023/12/04 10:54:48;;;;;;;18.98;11.25;;;;;;;2.37;100.00;100678.38;5072146;28;20531;-74
2023/12/04 10:57:31;;;;;;;18.58;10.65;;;;;;;2.44;100.00;100667.56;5051847;28;20040;-74
2023/12/04 10:59:58;;;;;;;;;;;;;;;2.38;100.00;100662.53;5087383;27;20086;-75
2023/12/04 11:02:26;;;;;;;20.27;11.75;;;;;;;2.34;100.00;100656.50;5084231;27;19926;-75
2023/12/04 11:04:55;;;;;;;20.08;11.43;;;;;;;2.34;100.00;100653.84;5078676;28;20028;-75